KBRG/BRG METAR and TAF weather

Enter ICAO airport designator
Station Type Date Time Source
KBRG METAR 2019/06/26 00:15 UTC NOAA

KBRG 260015Z AUTO 16013G18KT 10SM CLR 34/M09 A2998 RMK AO2 T03361088


Station Type Date Time Source
KBRG Decoded METAR 2019/06/26 00:15 UTC NOAA

Station name not available
Jun 25, 2019 - 08:15 PM EDT / 2019.06.26 0015 UTC
Wind: from the SSE (160 degrees) at 15 MPH (13 KT) gusting to 21 MPH (18 KT):0
Visibility: 10 mile(s):0
Sky conditions: clear
Temperature: 92.5 F (33.6 C)
Dew Point: 16.2 F (-8.8 C)
Relative Humidity: 6%
Pressure (altimeter): 29.98 in. Hg (1015 hPa)
ob: KBRG 260015Z AUTO 16013G18KT 10SM CLR 34/M09 A2998 RMK AO2 T03361088
cycle: 0

Station Type Date Time Source
KBRG TAF 2012/07/03 12:12 UTC NOAA

TAF SKBRG 031000Z 031212 VRB02KT 9999 FEW017 SCT080
TEMPO 0312/0317 11005KT VCTS - DZRAFEW015CB BKN070
TEMPO 0318/0323 TSRA FEW017CB BKN070
TEMPO 0400/0402 VCTS FEW020CB
TEMPO 0402/0406 -DZ SCT015CB
TEMPO 0408/0412 00000KT 5000 BCFG FEW005 TX23/0319Z TN10/0411Z

Example: see airport list